sensor_id;sensor_type;location;lat;lon;timestamp;P1;durP1;ratioP1;P2;durP2;ratioP2
611;SDS011;293;53.888;11.464;2022-09-09T00:01:37;17.37;;;15.33;;
611;SDS011;293;53.888;11.464;2022-09-09T00:04:15;19.50;;;15.77;;
611;SDS011;293;53.888;11.464;2022-09-09T00:06:50;17.20;;;15.30;;
611;SDS011;293;53.888;11.464;2022-09-09T00:09:26;19.40;;;16.30;;
611;SDS011;293;53.888;11.464;2022-09-09T00:11:56;17.80;;;16.00;;
611;SDS011;293;53.888;11.464;2022-09-09T00:14:32;20.53;;;17.57;;
611;SDS011;293;53.888;11.464;2022-09-09T00:17:06;18.83;;;16.30;;
611;SDS011;293;53.888;11.464;2022-09-09T00:19:38;18.37;;;15.83;;
611;SDS011;293;53.888;11.464;2022-09-09T00:22:15;20.20;;;18.20;;
611;SDS011;293;53.888;11.464;2022-09-09T00:24:44;22.50;;;19.10;;
611;SDS011;293;53.888;11.464;2022-09-09T00:27:16;21.20;;;16.23;;
611;SDS011;293;53.888;11.464;2022-09-09T00:29:50;21.83;;;19.20;;
611;SDS011;293;53.888;11.464;2022-09-09T00:32:20;21.03;;;16.93;;
611;SDS011;293;53.888;11.464;2022-09-09T00:34:49;17.80;;;16.00;;
611;SDS011;293;53.888;11.464;2022-09-09T00:37:20;21.80;;;19.37;;
611;SDS011;293;53.888;11.464;2022-09-09T00:39:50;24.03;;;17.77;;
611;SDS011;293;53.888;11.464;2022-09-09T00:42:23;21.67;;;17.77;;
611;SDS011;293;53.888;11.464;2022-09-09T00:44:52;23.90;;;21.10;;
611;SDS011;293;53.888;11.464;2022-09-09T00:47:32;27.73;;;22.10;;
611;SDS011;293;53.888;11.464;2022-09-09T00:50:24;23.60;;;20.93;;
611;SDS011;293;53.888;11.464;2022-09-09T00:53:09;25.03;;;21.27;;
611;SDS011;293;53.888;11.464;2022-09-09T00:55:46;23.77;;;19.40;;
611;SDS011;293;53.888;11.464;2022-09-09T00:58:19;24.80;;;22.10;;
611;SDS011;293;53.888;11.464;2022-09-09T01:00:46;30.73;;;23.87;;
611;SDS011;293;53.888;11.464;2022-09-09T01:03:22;23.07;;;20.57;;
611;SDS011;293;53.888;11.464;2022-09-09T01:06:00;23.43;;;20.57;;
611;SDS011;293;53.888;11.464;2022-09-09T01:08:46;25.47;;;22.73;;
611;SDS011;293;53.888;11.464;2022-09-09T01:11:25;25.10;;;21.20;;
611;SDS011;293;53.888;11.464;2022-09-09T01:14:00;26.00;;;21.33;;
611;SDS011;293;53.888;11.464;2022-09-09T01:16:36;29.00;;;23.40;;
611;SDS011;293;53.888;11.464;2022-09-09T01:19:02;29.20;;;23.93;;
611;SDS011;293;53.888;11.464;2022-09-09T01:21:36;34.43;;;28.37;;
611;SDS011;293;53.888;11.464;2022-09-09T01:24:17;38.47;;;25.70;;
611;SDS011;293;53.888;11.464;2022-09-09T01:26:52;34.40;;;26.67;;
611;SDS011;293;53.888;11.464;2022-09-09T01:29:22;32.80;;;25.07;;
611;SDS011;293;53.888;11.464;2022-09-09T01:31:52;28.73;;;24.57;;
611;SDS011;293;53.888;11.464;2022-09-09T01:34:21;28.50;;;23.50;;
611;SDS011;293;53.888;11.464;2022-09-09T01:36:50;29.50;;;25.50;;
611;SDS011;293;53.888;11.464;2022-09-09T01:39:23;32.90;;;25.20;;
611;SDS011;293;53.888;11.464;2022-09-09T01:41:50;32.80;;;23.90;;
611;SDS011;293;53.888;11.464;2022-09-09T01:44:19;31.27;;;25.20;;
611;SDS011;293;53.888;11.464;2022-09-09T01:46:46;30.93;;;23.80;;
611;SDS011;293;53.888;11.464;2022-09-09T01:49:13;38.27;;;27.50;;
611;SDS011;293;53.888;11.464;2022-09-09T01:51:40;34.70;;;26.97;;
611;SDS011;293;53.888;11.464;2022-09-09T01:54:09;30.90;;;25.30;;
611;SDS011;293;53.888;11.464;2022-09-09T01:56:40;30.83;;;23.23;;
611;SDS011;293;53.888;11.464;2022-09-09T01:59:17;31.00;;;23.37;;
611;SDS011;293;53.888;11.464;2022-09-09T02:01:57;28.73;;;22.10;;
611;SDS011;293;53.888;11.464;2022-09-09T02:04:36;32.87;;;24.03;;
611;SDS011;293;53.888;11.464;2022-09-09T02:07:06;30.23;;;25.17;;
611;SDS011;293;53.888;11.464;2022-09-09T02:09:43;28.80;;;23.67;;
611;SDS011;293;53.888;11.464;2022-09-09T02:12:14;29.20;;;23.87;;
611;SDS011;293;53.888;11.464;2022-09-09T02:14:48;39.43;;;28.20;;
611;SDS011;293;53.888;11.464;2022-09-09T02:17:19;35.60;;;24.93;;
611;SDS011;293;53.888;11.464;2022-09-09T02:19:52;33.33;;;25.70;;
611;SDS011;293;53.888;11.464;2022-09-09T02:22:24;38.27;;;26.37;;
611;SDS011;293;53.888;11.464;2022-09-09T02:24:53;31.70;;;26.00;;
611;SDS011;293;53.888;11.464;2022-09-09T02:27:25;32.13;;;23.67;;
611;SDS011;293;53.888;11.464;2022-09-09T02:29:53;29.50;;;23.47;;
611;SDS011;293;53.888;11.464;2022-09-09T02:32:23;30.33;;;23.43;;
611;SDS011;293;53.888;11.464;2022-09-09T02:34:51;33.43;;;23.50;;
611;SDS011;293;53.888;11.464;2022-09-09T02:37:23;29.20;;;23.40;;
611;SDS011;293;53.888;11.464;2022-09-09T02:39:54;30.63;;;24.37;;
611;SDS011;293;53.888;11.464;2022-09-09T02:42:20;27.50;;;23.63;;
611;SDS011;293;53.888;11.464;2022-09-09T02:44:49;32.30;;;26.40;;
611;SDS011;293;53.888;11.464;2022-09-09T02:47:20;27.97;;;22.57;;
611;SDS011;293;53.888;11.464;2022-09-09T02:49:56;34.43;;;25.53;;
611;SDS011;293;53.888;11.464;2022-09-09T02:52:32;37.40;;;24.83;;
611;SDS011;293;53.888;11.464;2022-09-09T02:55:04;26.60;;;23.10;;
611;SDS011;293;53.888;11.464;2022-09-09T02:57:34;33.83;;;25.47;;
611;SDS011;293;53.888;11.464;2022-09-09T03:00:03;32.53;;;25.87;;
611;SDS011;293;53.888;11.464;2022-09-09T03:02:32;34.10;;;26.60;;
611;SDS011;293;53.888;11.464;2022-09-09T03:04:59;31.50;;;25.57;;
611;SDS011;293;53.888;11.464;2022-09-09T03:07:26;33.33;;;25.40;;
611;SDS011;293;53.888;11.464;2022-09-09T03:09:53;33.80;;;25.37;;
611;SDS011;293;53.888;11.464;2022-09-09T03:12:20;35.03;;;27.47;;
611;SDS011;293;53.888;11.464;2022-09-09T03:14:46;33.37;;;25.23;;
611;SDS011;293;53.888;11.464;2022-09-09T03:17:13;35.53;;;25.40;;
611;SDS011;293;53.888;11.464;2022-09-09T03:19:41;34.17;;;26.10;;
611;SDS011;293;53.888;11.464;2022-09-09T03:22:09;38.60;;;26.83;;
611;SDS011;293;53.888;11.464;2022-09-09T03:24:36;33.30;;;26.37;;
611;SDS011;293;53.888;11.464;2022-09-09T03:27:03;36.17;;;28.10;;
611;SDS011;293;53.888;11.464;2022-09-09T03:29:30;34.93;;;26.07;;
611;SDS011;293;53.888;11.464;2022-09-09T03:31:57;33.17;;;22.80;;
611;SDS011;293;53.888;11.464;2022-09-09T03:34:24;33.70;;;26.57;;
611;SDS011;293;53.888;11.464;2022-09-09T03:36:53;33.67;;;23.97;;
611;SDS011;293;53.888;11.464;2022-09-09T03:39:20;36.47;;;25.30;;
611;SDS011;293;53.888;11.464;2022-09-09T03:41:47;33.47;;;24.83;;
611;SDS011;293;53.888;11.464;2022-09-09T03:44:14;34.80;;;25.47;;
611;SDS011;293;53.888;11.464;2022-09-09T03:46:41;36.40;;;24.30;;
611;SDS011;293;53.888;11.464;2022-09-09T03:49:07;40.83;;;25.57;;
611;SDS011;293;53.888;11.464;2022-09-09T03:51:35;33.97;;;24.10;;
611;SDS011;293;53.888;11.464;2022-09-09T03:54:04;38.67;;;24.57;;
611;SDS011;293;53.888;11.464;2022-09-09T03:56:33;37.40;;;24.83;;
611;SDS011;293;53.888;11.464;2022-09-09T03:59:00;38.37;;;24.57;;
611;SDS011;293;53.888;11.464;2022-09-09T04:01:27;38.20;;;23.47;;
611;SDS011;293;53.888;11.464;2022-09-09T04:03:55;40.77;;;26.33;;
611;SDS011;293;53.888;11.464;2022-09-09T04:06:23;34.27;;;23.47;;
611;SDS011;293;53.888;11.464;2022-09-09T04:08:50;41.60;;;26.03;;
611;SDS011;293;53.888;11.464;2022-09-09T04:11:19;35.07;;;23.63;;
611;SDS011;293;53.888;11.464;2022-09-09T04:13:46;36.73;;;23.87;;
611;SDS011;293;53.888;11.464;2022-09-09T04:16:14;36.13;;;22.80;;
611;SDS011;293;53.888;11.464;2022-09-09T04:18:41;38.67;;;26.57;;
611;SDS011;293;53.888;11.464;2022-09-09T04:21:09;34.80;;;22.40;;
611;SDS011;293;53.888;11.464;2022-09-09T04:23:36;34.53;;;23.47;;
611;SDS011;293;53.888;11.464;2022-09-09T04:26:03;37.53;;;23.13;;
611;SDS011;293;53.888;11.464;2022-09-09T04:28:33;36.20;;;23.60;;
611;SDS011;293;53.888;11.464;2022-09-09T04:31:04;33.30;;;22.83;;
611;SDS011;293;53.888;11.464;2022-09-09T04:33:31;32.07;;;19.93;;
611;SDS011;293;53.888;11.464;2022-09-09T04:35:58;32.47;;;20.20;;
611;SDS011;293;53.888;11.464;2022-09-09T04:38:25;41.30;;;25.43;;
611;SDS011;293;53.888;11.464;2022-09-09T04:40:52;35.43;;;23.30;;
611;SDS011;293;53.888;11.464;2022-09-09T04:43:19;31.97;;;22.13;;
611;SDS011;293;53.888;11.464;2022-09-09T04:45:49;37.20;;;23.70;;
611;SDS011;293;53.888;11.464;2022-09-09T04:48:17;38.53;;;24.70;;
611;SDS011;293;53.888;11.464;2022-09-09T04:50:44;42.60;;;25.13;;
611;SDS011;293;53.888;11.464;2022-09-09T04:53:19;41.97;;;24.27;;
611;SDS011;293;53.888;11.464;2022-09-09T04:55:47;41.40;;;23.60;;
611;SDS011;293;53.888;11.464;2022-09-09T04:58:14;39.50;;;23.97;;
611;SDS011;293;53.888;11.464;2022-09-09T05:00:41;33.03;;;24.33;;
611;SDS011;293;53.888;11.464;2022-09-09T05:03:09;40.00;;;23.43;;
611;SDS011;293;53.888;11.464;2022-09-09T05:05:37;38.60;;;24.60;;
611;SDS011;293;53.888;11.464;2022-09-09T05:08:04;41.77;;;23.60;;
611;SDS011;293;53.888;11.464;2022-09-09T05:10:33;31.23;;;20.67;;
611;SDS011;293;53.888;11.464;2022-09-09T05:13:01;36.80;;;24.57;;
611;SDS011;293;53.888;11.464;2022-09-09T05:15:29;40.17;;;23.93;;
611;SDS011;293;53.888;11.464;2022-09-09T05:17:56;39.50;;;25.30;;
611;SDS011;293;53.888;11.464;2022-09-09T05:20:25;36.27;;;26.20;;
611;SDS011;293;53.888;11.464;2022-09-09T05:22:52;36.50;;;24.10;;
611;SDS011;293;53.888;11.464;2022-09-09T05:25:19;36.20;;;21.97;;
611;SDS011;293;53.888;11.464;2022-09-09T05:27:47;28.40;;;21.10;;
611;SDS011;293;53.888;11.464;2022-09-09T05:30:14;38.17;;;23.00;;
611;SDS011;293;53.888;11.464;2022-09-09T05:32:41;34.00;;;23.40;;
611;SDS011;293;53.888;11.464;2022-09-09T05:35:08;41.70;;;26.73;;
611;SDS011;293;53.888;11.464;2022-09-09T05:37:36;39.53;;;26.50;;
611;SDS011;293;53.888;11.464;2022-09-09T05:40:03;31.70;;;23.27;;
611;SDS011;293;53.888;11.464;2022-09-09T05:42:31;33.70;;;24.60;;
611;SDS011;293;53.888;11.464;2022-09-09T05:44:57;38.00;;;26.80;;
611;SDS011;293;53.888;11.464;2022-09-09T05:47:24;37.20;;;27.40;;
611;SDS011;293;53.888;11.464;2022-09-09T05:49:52;29.40;;;23.93;;
611;SDS011;293;53.888;11.464;2022-09-09T05:52:20;43.60;;;31.80;;
611;SDS011;293;53.888;11.464;2022-09-09T05:54:48;53.30;;;40.90;;
611;SDS011;293;53.888;11.464;2022-09-09T05:57:15;33.13;;;28.00;;
611;SDS011;293;53.888;11.464;2022-09-09T05:59:44;34.43;;;26.43;;
611;SDS011;293;53.888;11.464;2022-09-09T06:02:11;31.93;;;25.20;;
611;SDS011;293;53.888;11.464;2022-09-09T06:04:38;30.03;;;25.93;;
611;SDS011;293;53.888;11.464;2022-09-09T06:07:07;28.23;;;25.20;;
611;SDS011;293;53.888;11.464;2022-09-09T06:09:34;26.70;;;23.90;;
611;SDS011;293;53.888;11.464;2022-09-09T06:12:03;30.00;;;22.97;;
611;SDS011;293;53.888;11.464;2022-09-09T06:14:30;27.57;;;24.50;;
611;SDS011;293;53.888;11.464;2022-09-09T06:16:57;30.43;;;23.90;;
611;SDS011;293;53.888;11.464;2022-09-09T06:19:24;26.57;;;23.77;;
611;SDS011;293;53.888;11.464;2022-09-09T06:21:51;23.50;;;21.20;;
611;SDS011;293;53.888;11.464;2022-09-09T06:24:18;28.33;;;25.30;;
611;SDS011;293;53.888;11.464;2022-09-09T06:26:45;28.13;;;25.30;;
611;SDS011;293;53.888;11.464;2022-09-09T06:29:13;28.70;;;25.20;;
611;SDS011;293;53.888;11.464;2022-09-09T06:31:39;28.60;;;23.50;;
611;SDS011;293;53.888;11.464;2022-09-09T06:34:07;30.63;;;26.30;;
611;SDS011;293;53.888;11.464;2022-09-09T06:36:35;28.63;;;24.10;;
611;SDS011;293;53.888;11.464;2022-09-09T06:39:03;23.63;;;21.13;;
611;SDS011;293;53.888;11.464;2022-09-09T06:41:31;20.30;;;18.37;;
611;SDS011;293;53.888;11.464;2022-09-09T06:43:59;20.90;;;18.73;;
611;SDS011;293;53.888;11.464;2022-09-09T06:46:28;20.80;;;18.80;;
611;SDS011;293;53.888;11.464;2022-09-09T06:48:57;21.00;;;18.87;;
611;SDS011;293;53.888;11.464;2022-09-09T06:51:25;21.10;;;19.10;;
611;SDS011;293;53.888;11.464;2022-09-09T06:53:54;23.93;;;21.50;;
611;SDS011;293;53.888;11.464;2022-09-09T06:56:23;24.20;;;20.63;;
611;SDS011;293;53.888;11.464;2022-09-09T06:58:53;21.37;;;19.20;;
611;SDS011;293;53.888;11.464;2022-09-09T07:01:21;23.50;;;20.93;;
611;SDS011;293;53.888;11.464;2022-09-09T07:03:51;24.17;;;21.57;;
611;SDS011;293;53.888;11.464;2022-09-09T07:06:20;25.40;;;21.50;;
611;SDS011;293;53.888;11.464;2022-09-09T07:08:50;25.17;;;20.90;;
611;SDS011;293;53.888;11.464;2022-09-09T07:11:18;25.40;;;22.90;;
611;SDS011;293;53.888;11.464;2022-09-09T07:13:46;38.23;;;34.63;;
611;SDS011;293;53.888;11.464;2022-09-09T07:16:13;37.37;;;33.73;;
611;SDS011;293;53.888;11.464;2022-09-09T07:18:42;20.57;;;18.47;;
611;SDS011;293;53.888;11.464;2022-09-09T07:21:11;21.23;;;17.90;;
611;SDS011;293;53.888;11.464;2022-09-09T07:23:40;21.40;;;19.20;;
611;SDS011;293;53.888;11.464;2022-09-09T07:26:08;20.27;;;18.27;;
611;SDS011;293;53.888;11.464;2022-09-09T07:28:35;20.20;;;18.20;;
611;SDS011;293;53.888;11.464;2022-09-09T07:31:03;20.23;;;18.40;;
611;SDS011;293;53.888;11.464;2022-09-09T07:33:31;17.10;;;15.60;;
611;SDS011;293;53.888;11.464;2022-09-09T07:36:04;16.63;;;15.13;;
611;SDS011;293;53.888;11.464;2022-09-09T07:38:38;18.43;;;16.70;;
611;SDS011;293;53.888;11.464;2022-09-09T07:41:06;18.87;;;17.27;;
611;SDS011;293;53.888;11.464;2022-09-09T07:43:36;19.53;;;17.83;;
611;SDS011;293;53.888;11.464;2022-09-09T07:46:04;18.50;;;16.40;;
611;SDS011;293;53.888;11.464;2022-09-09T07:48:32;18.87;;;17.00;;
611;SDS011;293;53.888;11.464;2022-09-09T07:51:06;18.87;;;17.00;;
611;SDS011;293;53.888;11.464;2022-09-09T07:53:34;16.87;;;15.23;;
611;SDS011;293;53.888;11.464;2022-09-09T07:56:05;20.60;;;18.50;;
611;SDS011;293;53.888;11.464;2022-09-09T07:58:35;20.47;;;18.77;;
611;SDS011;293;53.888;11.464;2022-09-09T08:01:06;16.77;;;15.27;;
611;SDS011;293;53.888;11.464;2022-09-09T08:03:34;19.73;;;18.07;;
611;SDS011;293;53.888;11.464;2022-09-09T08:06:01;19.53;;;17.77;;
611;SDS011;293;53.888;11.464;2022-09-09T08:08:28;17.90;;;16.40;;
611;SDS011;293;53.888;11.464;2022-09-09T08:11:01;19.60;;;17.90;;
611;SDS011;293;53.888;11.464;2022-09-09T08:13:30;16.80;;;15.20;;
611;SDS011;293;53.888;11.464;2022-09-09T08:16:03;16.87;;;15.50;;
611;SDS011;293;53.888;11.464;2022-09-09T08:18:31;15.00;;;13.60;;
611;SDS011;293;53.888;11.464;2022-09-09T08:21:04;13.70;;;12.60;;
611;SDS011;293;53.888;11.464;2022-09-09T08:23:32;17.17;;;14.50;;
611;SDS011;293;53.888;11.464;2022-09-09T08:26:02;12.23;;;11.13;;
611;SDS011;293;53.888;11.464;2022-09-09T08:28:31;13.27;;;12.17;;
611;SDS011;293;53.888;11.464;2022-09-09T08:31:04;13.77;;;12.50;;
611;SDS011;293;53.888;11.464;2022-09-09T08:33:32;19.57;;;17.87;;
611;SDS011;293;53.888;11.464;2022-09-09T08:36:01;23.97;;;21.83;;
611;SDS011;293;53.888;11.464;2022-09-09T08:38:28;15.80;;;13.67;;
611;SDS011;293;53.888;11.464;2022-09-09T08:40:56;12.30;;;11.23;;
611;SDS011;293;53.888;11.464;2022-09-09T08:43:32;12.87;;;11.57;;
611;SDS011;293;53.888;11.464;2022-09-09T08:46:01;12.03;;;10.97;;
611;SDS011;293;53.888;11.464;2022-09-09T08:48:47;11.80;;;10.70;;
611;SDS011;293;53.888;11.464;2022-09-09T08:51:21;10.40;;;9.60;;
611;SDS011;293;53.888;11.464;2022-09-09T08:53:52;13.17;;;12.07;;
611;SDS011;293;53.888;11.464;2022-09-09T08:56:21;10.70;;;9.70;;
611;SDS011;293;53.888;11.464;2022-09-09T08:58:51;12.23;;;11.23;;
611;SDS011;293;53.888;11.464;2022-09-09T09:01:33;14.10;;;12.90;;
611;SDS011;293;53.888;11.464;2022-09-09T09:04:12;11.77;;;10.87;;
611;SDS011;293;53.888;11.464;2022-09-09T09:06:50;11.33;;;10.53;;
611;SDS011;293;53.888;11.464;2022-09-09T09:09:30;12.10;;;11.20;;
611;SDS011;293;53.888;11.464;2022-09-09T09:12:02;12.53;;;11.50;;
611;SDS011;293;53.888;11.464;2022-09-09T09:14:39;10.07;;;9.27;;
611;SDS011;293;53.888;11.464;2022-09-09T09:17:10;13.77;;;11.77;;
611;SDS011;293;53.888;11.464;2022-09-09T09:19:40;12.33;;;11.40;;
611;SDS011;293;53.888;11.464;2022-09-09T09:22:10;11.77;;;10.67;;
611;SDS011;293;53.888;11.464;2022-09-09T09:24:43;11.30;;;10.30;;
611;SDS011;293;53.888;11.464;2022-09-09T09:27:18;11.50;;;10.60;;
611;SDS011;293;53.888;11.464;2022-09-09T09:29:55;11.07;;;10.07;;
611;SDS011;293;53.888;11.464;2022-09-09T09:32:24;11.37;;;10.20;;
611;SDS011;293;53.888;11.464;2022-09-09T09:34:53;10.10;;;9.40;;
611;SDS011;293;53.888;11.464;2022-09-09T09:37:26;9.20;;;8.50;;
611;SDS011;293;53.888;11.464;2022-09-09T09:39:55;8.60;;;7.73;;
611;SDS011;293;53.888;11.464;2022-09-09T09:42:22;10.03;;;8.90;;
611;SDS011;293;53.888;11.464;2022-09-09T09:44:49;9.10;;;8.30;;
611;SDS011;293;53.888;11.464;2022-09-09T09:47:18;8.80;;;7.90;;
611;SDS011;293;53.888;11.464;2022-09-09T09:49:52;8.87;;;8.30;;
611;SDS011;293;53.888;11.464;2022-09-09T09:52:21;8.60;;;7.90;;
611;SDS011;293;53.888;11.464;2022-09-09T09:54:49;9.20;;;8.37;;
611;SDS011;293;53.888;11.464;2022-09-09T09:57:17;9.73;;;8.73;;
611;SDS011;293;53.888;11.464;2022-09-09T09:59:59;9.90;;;9.10;;
611;SDS011;293;53.888;11.464;2022-09-09T10:02:36;16.57;;;15.20;;
611;SDS011;293;53.888;11.464;2022-09-09T10:05:08;24.73;;;22.83;;
611;SDS011;293;53.888;11.464;2022-09-09T10:07:40;10.07;;;9.37;;
611;SDS011;293;53.888;11.464;2022-09-09T10:10:09;9.93;;;9.00;;
611;SDS011;293;53.888;11.464;2022-09-09T10:12:42;8.93;;;8.03;;
611;SDS011;293;53.888;11.464;2022-09-09T10:15:26;10.07;;;8.40;;
611;SDS011;293;53.888;11.464;2022-09-09T10:18:07;8.10;;;7.40;;
611;SDS011;293;53.888;11.464;2022-09-09T10:20:50;8.50;;;7.70;;
611;SDS011;293;53.888;11.464;2022-09-09T10:23:41;7.67;;;7.07;;
611;SDS011;293;53.888;11.464;2022-09-09T10:26:24;7.20;;;6.50;;
611;SDS011;293;53.888;11.464;2022-09-09T10:29:02;8.33;;;7.63;;
611;SDS011;293;53.888;11.464;2022-09-09T10:31:40;9.13;;;8.27;;
611;SDS011;293;53.888;11.464;2022-09-09T10:34:19;9.17;;;8.27;;
611;SDS011;293;53.888;11.464;2022-09-09T10:36:57;7.13;;;6.53;;
611;SDS011;293;53.888;11.464;2022-09-09T10:39:29;8.40;;;7.67;;
611;SDS011;293;53.888;11.464;2022-09-09T10:42:03;7.70;;;7.00;;
611;SDS011;293;53.888;11.464;2022-09-09T10:44:36;6.33;;;5.57;;
611;SDS011;293;53.888;11.464;2022-09-09T10:47:24;7.60;;;7.10;;
611;SDS011;293;53.888;11.464;2022-09-09T10:50:12;5.83;;;5.43;;
611;SDS011;293;53.888;11.464;2022-09-09T10:52:56;9.63;;;6.47;;
611;SDS011;293;53.888;11.464;2022-09-09T10:55:31;5.60;;;5.20;;
611;SDS011;293;53.888;11.464;2022-09-09T10:58:03;4.47;;;4.07;;
611;SDS011;293;53.888;11.464;2022-09-09T11:00:35;4.43;;;4.10;;
611;SDS011;293;53.888;11.464;2022-09-09T11:03:05;5.30;;;4.80;;
611;SDS011;293;53.888;11.464;2022-09-09T11:05:41;5.33;;;4.90;;
611;SDS011;293;53.888;11.464;2022-09-09T11:08:10;5.00;;;4.60;;
611;SDS011;293;53.888;11.464;2022-09-09T11:10:41;5.37;;;4.23;;
611;SDS011;293;53.888;11.464;2022-09-09T11:13:14;4.17;;;3.87;;
611;SDS011;293;53.888;11.464;2022-09-09T11:15:46;4.20;;;3.80;;
611;SDS011;293;53.888;11.464;2022-09-09T11:18:19;5.33;;;4.30;;
611;SDS011;293;53.888;11.464;2022-09-09T11:20:50;3.07;;;2.80;;
611;SDS011;293;53.888;11.464;2022-09-09T11:23:22;4.10;;;3.80;;
611;SDS011;293;53.888;11.464;2022-09-09T11:25:53;3.50;;;3.17;;
611;SDS011;293;53.888;11.464;2022-09-09T11:28:27;4.27;;;3.47;;
611;SDS011;293;53.888;11.464;2022-09-09T11:31:16;5.23;;;3.33;;
611;SDS011;293;53.888;11.464;2022-09-09T11:33:59;4.90;;;3.33;;
611;SDS011;293;53.888;11.464;2022-09-09T11:36:47;3.17;;;2.87;;
611;SDS011;293;53.888;11.464;2022-09-09T11:39:28;5.70;;;3.00;;
611;SDS011;293;53.888;11.464;2022-09-09T11:42:15;7.47;;;3.80;;
611;SDS011;293;53.888;11.464;2022-09-09T11:44:49;4.47;;;3.30;;
611;SDS011;293;53.888;11.464;2022-09-09T11:47:22;29.57;;;26.97;;
611;SDS011;293;53.888;11.464;2022-09-09T11:49:54;18.23;;;16.43;;
611;SDS011;293;53.888;11.464;2022-09-09T11:52:23;3.43;;;3.10;;
611;SDS011;293;53.888;11.464;2022-09-09T11:55:08;3.80;;;2.23;;
611;SDS011;293;53.888;11.464;2022-09-09T11:57:36;4.60;;;4.00;;
611;SDS011;293;53.888;11.464;2022-09-09T12:00:06;1.93;;;1.83;;
611;SDS011;293;53.888;11.464;2022-09-09T12:02:48;3.93;;;1.73;;
611;SDS011;293;53.888;11.464;2022-09-09T12:05:15;2.90;;;1.90;;
611;SDS011;293;53.888;11.464;2022-09-09T12:07:48;2.07;;;1.80;;
611;SDS011;293;53.888;11.464;2022-09-09T12:10:20;2.57;;;2.37;;
611;SDS011;293;53.888;11.464;2022-09-09T12:12:51;2.97;;;2.63;;
611;SDS011;293;53.888;11.464;2022-09-09T12:17:55;3.63;;;1.40;;
611;SDS011;293;53.888;11.464;2022-09-09T12:20:26;3.90;;;3.57;;
611;SDS011;293;53.888;11.464;2022-09-09T12:23:08;8.70;;;7.90;;
611;SDS011;293;53.888;11.464;2022-09-09T12:25:50;6.13;;;2.33;;
611;SDS011;293;53.888;11.464;2022-09-09T12:28:27;2.70;;;1.10;;
611;SDS011;293;53.888;11.464;2022-09-09T12:31:17;3.80;;;1.90;;
611;SDS011;293;53.888;11.464;2022-09-09T12:33:49;1.77;;;1.50;;
611;SDS011;293;53.888;11.464;2022-09-09T12:36:18;2.10;;;1.27;;
611;SDS011;293;53.888;11.464;2022-09-09T12:38:49;3.07;;;1.20;;
611;SDS011;293;53.888;11.464;2022-09-09T12:41:20;4.00;;;1.90;;
611;SDS011;293;53.888;11.464;2022-09-09T12:43:49;7.90;;;7.27;;
611;SDS011;293;53.888;11.464;2022-09-09T12:46:21;4.70;;;2.60;;
611;SDS011;293;53.888;11.464;2022-09-09T12:48:52;1.70;;;1.60;;
611;SDS011;293;53.888;11.464;2022-09-09T12:51:21;1.43;;;1.33;;
611;SDS011;293;53.888;11.464;2022-09-09T12:53:54;2.20;;;1.40;;
611;SDS011;293;53.888;11.464;2022-09-09T12:56:22;24.63;;;22.23;;
611;SDS011;293;53.888;11.464;2022-09-09T12:58:54;3.97;;;2.37;;
611;SDS011;293;53.888;11.464;2022-09-09T13:01:24;2.70;;;2.50;;
611;SDS011;293;53.888;11.464;2022-09-09T13:03:53;2.70;;;1.40;;
611;SDS011;293;53.888;11.464;2022-09-09T13:06:21;3.43;;;1.47;;
611;SDS011;293;53.888;11.464;2022-09-09T13:08:49;2.07;;;1.87;;
611;SDS011;293;53.888;11.464;2022-09-09T13:11:19;3.93;;;2.20;;
611;SDS011;293;53.888;11.464;2022-09-09T13:13:50;5.93;;;3.03;;
611;SDS011;293;53.888;11.464;2022-09-09T13:16:20;3.43;;;2.17;;
611;SDS011;293;53.888;11.464;2022-09-09T13:18:49;3.20;;;1.80;;
611;SDS011;293;53.888;11.464;2022-09-09T13:21:16;2.00;;;1.53;;
611;SDS011;293;53.888;11.464;2022-09-09T13:23:48;3.33;;;1.20;;
611;SDS011;293;53.888;11.464;2022-09-09T13:26:21;4.73;;;1.53;;
611;SDS011;293;53.888;11.464;2022-09-09T13:28:52;3.70;;;2.10;;
611;SDS011;293;53.888;11.464;2022-09-09T13:31:21;1.40;;;1.30;;
611;SDS011;293;53.888;11.464;2022-09-09T13:33:49;2.57;;;1.50;;
611;SDS011;293;53.888;11.464;2022-09-09T13:36:26;2.50;;;1.40;;
611;SDS011;293;53.888;11.464;2022-09-09T13:38:56;1.97;;;1.50;;
611;SDS011;293;53.888;11.464;2022-09-09T13:41:27;2.67;;;1.30;;
611;SDS011;293;53.888;11.464;2022-09-09T13:43:58;4.70;;;2.27;;
611;SDS011;293;53.888;11.464;2022-09-09T13:46:28;3.07;;;1.60;;
611;SDS011;293;53.888;11.464;2022-09-09T13:48:59;1.80;;;1.60;;
611;SDS011;293;53.888;11.464;2022-09-09T13:51:33;2.40;;;1.70;;
611;SDS011;293;53.888;11.464;2022-09-09T13:54:02;10.10;;;9.23;;
611;SDS011;293;53.888;11.464;2022-09-09T13:56:32;10.23;;;9.23;;
611;SDS011;293;53.888;11.464;2022-09-09T13:58:59;4.50;;;2.00;;
611;SDS011;293;53.888;11.464;2022-09-09T14:01:26;4.87;;;1.93;;
611;SDS011;293;53.888;11.464;2022-09-09T14:03:53;2.43;;;2.20;;
611;SDS011;293;53.888;11.464;2022-09-09T14:06:20;2.50;;;2.00;;
611;SDS011;293;53.888;11.464;2022-09-09T14:08:48;5.03;;;3.13;;
611;SDS011;293;53.888;11.464;2022-09-09T14:11:16;3.80;;;1.70;;
611;SDS011;293;53.888;11.464;2022-09-09T14:13:45;3.80;;;1.90;;
611;SDS011;293;53.888;11.464;2022-09-09T14:16:12;2.00;;;1.80;;
611;SDS011;293;53.888;11.464;2022-09-09T14:18:39;2.93;;;2.60;;
611;SDS011;293;53.888;11.464;2022-09-09T14:21:05;3.37;;;1.80;;
611;SDS011;293;53.888;11.464;2022-09-09T14:23:33;3.17;;;2.53;;
611;SDS011;293;53.888;11.464;2022-09-09T14:26:00;3.70;;;2.70;;
611;SDS011;293;53.888;11.464;2022-09-09T14:28:27;3.03;;;2.77;;
611;SDS011;293;53.888;11.464;2022-09-09T14:30:58;2.40;;;1.77;;
611;SDS011;293;53.888;11.464;2022-09-09T14:33:25;5.10;;;2.70;;
611;SDS011;293;53.888;11.464;2022-09-09T14:35:55;15.67;;;14.17;;
611;SDS011;293;53.888;11.464;2022-09-09T14:38:23;9.50;;;8.80;;
611;SDS011;293;53.888;11.464;2022-09-09T14:40:50;3.50;;;3.17;;
611;SDS011;293;53.888;11.464;2022-09-09T14:43:17;4.60;;;2.70;;
611;SDS011;293;53.888;11.464;2022-09-09T14:45:45;1.60;;;1.47;;
611;SDS011;293;53.888;11.464;2022-09-09T14:48:14;3.17;;;2.07;;
611;SDS011;293;53.888;11.464;2022-09-09T14:50:41;3.93;;;2.23;;
611;SDS011;293;53.888;11.464;2022-09-09T14:53:07;2.73;;;1.90;;
611;SDS011;293;53.888;11.464;2022-09-09T14:55:35;3.13;;;1.57;;
611;SDS011;293;53.888;11.464;2022-09-09T14:58:02;2.20;;;1.50;;
611;SDS011;293;53.888;11.464;2022-09-09T15:00:29;3.30;;;2.03;;
611;SDS011;293;53.888;11.464;2022-09-09T15:02:55;3.67;;;1.90;;
611;SDS011;293;53.888;11.464;2022-09-09T15:05:23;1.30;;;1.00;;
611;SDS011;293;53.888;11.464;2022-09-09T15:07:50;2.23;;;1.53;;
611;SDS011;293;53.888;11.464;2022-09-09T15:10:17;4.03;;;2.80;;
611;SDS011;293;53.888;11.464;2022-09-09T15:12:44;4.90;;;4.50;;
611;SDS011;293;53.888;11.464;2022-09-09T15:15:11;5.20;;;3.70;;
611;SDS011;293;53.888;11.464;2022-09-09T15:17:38;5.77;;;4.70;;
611;SDS011;293;53.888;11.464;2022-09-09T15:20:05;4.70;;;4.03;;
611;SDS011;293;53.888;11.464;2022-09-09T15:22:34;4.47;;;4.10;;
611;SDS011;293;53.888;11.464;2022-09-09T15:25:02;5.47;;;4.80;;
611;SDS011;293;53.888;11.464;2022-09-09T15:27:30;5.60;;;5.00;;
611;SDS011;293;53.888;11.464;2022-09-09T15:29:59;4.93;;;4.40;;
611;SDS011;293;53.888;11.464;2022-09-09T15:32:25;18.10;;;16.30;;
611;SDS011;293;53.888;11.464;2022-09-09T15:34:53;4.40;;;4.10;;
611;SDS011;293;53.888;11.464;2022-09-09T15:37:20;4.27;;;3.87;;